Haslet, TX (76052)

7:09 PM CDT on July 02, 2015 (GMT -0500)
Villages of Woodland Springs West | | Change Station
CLOSE
Current Station
Personal Weather Station
Location: Keller, TX
Elevation: 797 ft
Nearby Weather Stations

Elev 797 ft 32.95 °N, 97.31 °W | Updated 8 seconds ago

Mostly Cloudy
Mostly Cloudy
89.9 °F
Feels Like 92 °F
N
0.0
Wind Variable Wind from SSW
Gusts 0.0 mph

Today
High -- | Low -- °F
--% Chance of Precip.
Yesterday
High -- | Low -- °F
Precip. -- in
6:24 AM 8:41 PM
Full, 99% visible
Pressure 29.84 in
Visibility 10.0 miles
Clouds Few 6500 ft
Few 20000 ft
Mostly Cloudy 28000 ft
Heat Index 92 °F
Dew Point 64 °F
Humidity 43%
Rainfall 0.00 in
Snow Depth Not available.
UV 1 out of 12
Pollen 5.20 out of 12
Air Quality Not available.
Flu Activity Not available.
METAR KAFW 022353Z 20010G17KT 10SM FEW065 FEW200 BKN280 32/19 A2988 RMK AO2 SLP103 T03170194 10333 20306 58016

More Conditions Fewer Conditions

Pressure 29.84 in
Visibility 10.0 miles
Clouds Few 6500 ft
Few 20000 ft
Mostly Cloudy 28000 ft
Heat Index 92 °F
Dew Point 64 °F
Humidity 43%
Rainfall 0.00 in
Snow Depth Not available.
UV 1 out of 12
Pollen 5.20 out of 12
Air Quality Not available.
Flu Activity Not available.
METAR KAFW 022353Z 20010G17KT 10SM FEW065 FEW200 BKN280 32/19 A2988 RMK AO2 SLP103 T03170194 10333 20306 58016

More Conditions Fewer Conditions

10-Day Weather Forecast

×

Almanac

Astronomy

Jul. 02, 2015 Rise Set
Actual Time
Civil Twilight
Nautical Twilight
Astronomical Twilight
Moon
Length of Visible Light
Length of Day
Tomorrow will be .
, % of the Moon is Illuminated

Today's Extremes

State Highs State Lows

Community

WunderPhotos

Upload Photos

1,834,575 photos uploaded!

WunderBlogs® & News

Nearby

Air Quality

  Air Quality AQ Index Pollutant
Not available.

Snow Depth

Station Depth Elevation

Earthquake Activity

City Distance Mag. Time & Date
Minimum magnitude displayed is 2.5.

Coastal Water Temperatures

Place Temperature

Stations

Nearby Weather Stations

Station Location Temp. Windchill Dew Point Humidity Wind Precip. Elev Updated Type